createdAt,value
2019-04-21T00:01:55.959Z,51.68
2019-04-21T00:04:38.116Z,51.98
2019-04-21T00:07:19.366Z,52.26
2019-04-21T00:09:58.219Z,52.36
2019-04-21T00:12:40.562Z,52.47
2019-04-21T00:14:56.829Z,52.19
2019-04-21T00:17:19.703Z,52.22
2019-04-21T00:19:59.424Z,51.84
2019-04-21T00:22:37.707Z,51.70
2019-04-21T00:25:16.306Z,51.64
2019-04-21T00:27:55.216Z,52.19
2019-04-21T00:30:30.017Z,52.71
2019-04-21T00:32:54.083Z,53.20
2019-04-21T00:35:19.577Z,53.49
2019-04-21T00:38:08.218Z,53.68
2019-04-21T00:40:50.500Z,53.86
2019-04-21T00:43:18.120Z,53.80
2019-04-21T00:45:43.484Z,53.76
2019-04-21T00:48:29.851Z,53.55
2019-04-21T00:51:16.225Z,53.88
2019-04-21T00:53:51.226Z,53.92
2019-04-21T00:56:36.595Z,54.33
2019-04-21T00:58:56.155Z,53.83
2019-04-21T01:01:26.817Z,54.18
2019-04-21T01:03:57.693Z,54.04
2019-04-21T01:06:35.229Z,54.53
2019-04-21T01:09:02.629Z,54.75
2019-04-21T01:11:37.660Z,55.07
2019-04-21T01:14:12.077Z,55.00
2019-04-21T01:16:45.910Z,55.17
2019-04-21T01:19:17.309Z,54.52
2019-04-21T01:21:31.251Z,55.08
2019-04-21T01:24:11.806Z,54.95
2019-04-21T01:26:47.084Z,55.29
2019-04-21T01:29:27.999Z,54.78
2019-04-21T01:32:13.281Z,54.92
2019-04-21T01:34:39.577Z,55.16
2019-04-21T01:37:04.613Z,55.45
2019-04-21T01:39:48.506Z,55.36
2019-04-21T01:42:18.351Z,55.47
2019-04-21T01:44:53.196Z,54.94
2019-04-21T01:47:26.230Z,55.48
2019-04-21T01:49:52.715Z,55.36
2019-04-21T01:52:43.862Z,54.95
2019-04-21T01:55:20.720Z,54.85
2019-04-21T01:57:49.330Z,55.14
2019-04-21T02:00:19.066Z,55.42
2019-04-21T02:03:18.733Z,55.17
2019-04-21T02:05:37.478Z,55.47
2019-04-21T02:08:05.106Z,55.83
2019-04-21T02:10:47.996Z,55.77
2019-04-21T02:13:11.828Z,55.99
2019-04-21T02:15:48.817Z,55.78
2019-04-21T02:18:24.792Z,55.99
2019-04-21T02:20:45.657Z,55.71
2019-04-21T02:23:39.469Z,55.56
2019-04-21T02:26:03.850Z,55.57
2019-04-21T02:28:50.032Z,55.89
2019-04-21T02:31:28.645Z,56.32
2019-04-21T02:34:04.536Z,56.35
2019-04-21T02:39:12.298Z,57.06
2019-04-21T02:41:45.630Z,56.93
2019-04-21T02:44:08.652Z,57.36
2019-04-21T02:49:22.823Z,57.25
2019-04-21T02:57:04.871Z,57.99
2019-04-21T02:59:33.963Z,57.96
2019-04-21T03:02:22.769Z,57.61
2019-04-21T03:04:57.283Z,57.33
2019-04-21T03:07:50.238Z,57.15
2019-04-21T03:09:59.116Z,57.00
2019-04-21T03:12:53.062Z,57.40
2019-04-21T03:15:18.170Z,57.60
2019-04-21T03:17:49.857Z,57.25
2019-04-21T03:20:23.706Z,57.53
2019-04-21T03:22:53.432Z,57.47
2019-04-21T03:28:11.149Z,57.19
2019-04-21T03:33:42.198Z,57.43
2019-04-21T03:40:41.239Z,57.58
2019-04-21T03:43:21.193Z,58.09
2019-04-21T03:45:51.454Z,57.65
2019-04-21T03:48:36.740Z,56.94
2019-04-21T03:51:07.750Z,57.29
2019-04-21T03:53:48.077Z,57.76
2019-04-21T03:56:44.501Z,57.53
2019-04-21T04:01:50.979Z,57.63
2019-04-21T04:04:24.487Z,57.74
2019-04-21T04:09:37.488Z,58.72
2019-04-21T04:11:50.469Z,58.57
2019-04-21T04:14:34.210Z,58.02
2019-04-21T04:17:06.108Z,57.71
2019-04-21T04:19:38.938Z,58.00
2019-04-21T04:27:35.249Z,58.60
2019-04-21T04:29:56.798Z,58.43
2019-04-21T04:32:23.168Z,58.61
2019-04-21T04:35:03.423Z,58.94
2019-04-21T04:37:32.186Z,59.08
2019-04-21T04:40:10.932Z,59.38
2019-04-21T04:42:55.928Z,59.29
2019-04-21T04:45:23.769Z,59.09
2019-04-21T04:47:50.768Z,59.26
2019-04-21T04:50:31.644Z,59.67
2019-04-21T04:53:01.229Z,60.03
2019-04-21T04:55:33.866Z,59.18
2019-04-21T05:03:11.711Z,59.48
2019-04-21T05:11:44.560Z,58.96
2019-04-21T05:14:06.273Z,59.15
2019-04-21T05:19:22.643Z,58.02
2019-04-21T05:21:39.419Z,58.56
2019-04-21T05:24:08.099Z,58.56
2019-04-21T05:26:39.244Z,58.98
2019-04-21T05:29:10.827Z,59.39
2019-04-21T05:31:58.393Z,58.87
2019-04-21T05:34:42.675Z,58.76
2019-04-21T05:37:01.392Z,56.69
2019-04-21T05:39:36.115Z,54.86
2019-04-21T05:42:00.789Z,54.62
2019-04-21T05:44:58.099Z,54.48
2019-04-21T05:49:56.101Z,54.47
2019-04-21T05:52:26.528Z,54.04
2019-04-21T05:55:12.690Z,53.75
2019-04-21T05:57:43.134Z,53.75
2019-04-21T06:00:15.645Z,53.89
2019-04-21T06:02:50.971Z,54.05
2019-04-21T06:05:34.907Z,53.82
2019-04-21T06:08:00.426Z,54.03
2019-04-21T06:10:36.123Z,52.90
2019-04-21T06:13:13.062Z,52.61
2019-04-21T06:15:44.596Z,52.14
2019-04-21T06:18:20.240Z,53.34
2019-04-21T06:20:51.152Z,51.56
2019-04-21T06:23:25.733Z,53.18
2019-04-21T06:26:08.506Z,52.78
2019-04-21T06:28:35.969Z,52.13
2019-04-21T06:31:30.282Z,46.21
2019-04-21T06:33:40.560Z,46.49
2019-04-21T06:39:01.865Z,47.30
2019-04-21T06:44:05.103Z,47.54
2019-04-21T06:51:38.986Z,48.08
2019-04-21T06:54:16.106Z,44.40
2019-04-21T06:59:19.208Z,44.43
2019-04-21T07:02:02.920Z,45.09
2019-04-21T07:07:00.477Z,43.86
2019-04-21T07:09:31.896Z,43.90
2019-04-21T07:12:06.089Z,43.83
2019-04-21T07:17:22.630Z,44.09
2019-04-21T07:22:24.516Z,42.25
2019-04-21T07:24:57.356Z,41.26
2019-04-21T07:27:30.172Z,42.57
2019-04-21T07:30:05.261Z,41.88
2019-04-21T07:32:33.676Z,41.35
2019-04-21T07:35:08.431Z,42.01
2019-04-21T07:37:46.183Z,42.33
2019-04-21T07:40:09.444Z,42.54
2019-04-21T07:42:46.280Z,42.51
2019-04-21T07:45:16.859Z,43.42
2019-04-21T07:48:08.347Z,43.76
2019-04-21T07:51:04.422Z,44.31
2019-04-21T07:53:48.255Z,43.79
2019-04-21T07:55:51.219Z,41.66
2019-04-21T07:58:51.040Z,42.14
2019-04-21T08:01:18.070Z,42.01
2019-04-21T08:03:57.022Z,40.97
2019-04-21T08:06:29.526Z,41.65
2019-04-21T08:08:52.883Z,41.07
2019-04-21T08:11:25.386Z,40.73
2019-04-21T08:14:00.573Z,41.01
2019-04-21T08:16:36.793Z,40.21
2019-04-21T08:19:13.161Z,40.97
2019-04-21T08:21:55.794Z,40.81
2019-04-21T08:24:14.499Z,42.02
2019-04-21T08:26:51.435Z,43.08
2019-04-21T08:29:38.033Z,43.23
2019-04-21T08:32:02.602Z,42.52
2019-04-21T08:34:36.849Z,43.83
2019-04-21T08:37:04.215Z,42.69
2019-04-21T08:39:53.549Z,41.26
2019-04-21T08:42:11.904Z,40.45
2019-04-21T08:44:47.785Z,40.91
2019-04-21T08:47:20.706Z,41.70
2019-04-21T08:49:57.223Z,41.12
2019-04-21T08:52:37.032Z,40.97
2019-04-21T08:55:03.737Z,40.49
2019-04-21T08:58:15.527Z,40.69
2019-04-21T09:00:56.259Z,40.77
2019-04-21T09:03:14.628Z,39.48
2019-04-21T09:05:42.590Z,40.00
2019-04-21T09:08:20.210Z,39.61
2019-04-21T09:10:56.009Z,40.00
2019-04-21T09:13:25.909Z,40.19
2019-04-21T09:15:59.449Z,40.99
2019-04-21T09:18:28.418Z,39.96
2019-04-21T09:21:10.991Z,39.90
2019-04-21T09:23:38.234Z,39.36
2019-04-21T09:26:14.030Z,39.64
2019-04-21T09:28:39.487Z,39.35
2019-04-21T09:31:06.352Z,40.37
2019-04-21T09:33:41.297Z,40.03
2019-04-21T09:36:14.324Z,39.99
2019-04-21T09:38:45.708Z,41.08
2019-04-21T09:41:20.856Z,41.00
2019-04-21T09:43:53.668Z,39.61
2019-04-21T09:46:23.723Z,39.73
2019-04-21T09:49:02.006Z,37.80
2019-04-21T09:51:30.453Z,38.51
2019-04-21T09:54:09.827Z,38.99
2019-04-21T09:56:44.876Z,38.62
2019-04-21T09:59:19.359Z,38.64
2019-04-21T10:01:56.013Z,38.48
2019-04-21T10:04:16.960Z,37.58
2019-04-21T10:06:49.709Z,36.72
2019-04-21T10:09:21.869Z,36.95
2019-04-21T10:11:54.843Z,37.03
2019-04-21T10:14:26.739Z,37.01
2019-04-21T10:16:59.980Z,36.99
2019-04-21T10:19:31.962Z,36.61
2019-04-21T10:22:05.784Z,36.32
2019-04-21T10:24:38.344Z,36.82
2019-04-21T10:27:12.231Z,36.40
2019-04-21T10:29:45.391Z,35.70
2019-04-21T10:32:21.068Z,37.11
2019-04-21T10:34:51.030Z,35.03
2019-04-21T10:37:34.581Z,36.15
2019-04-21T10:39:57.724Z,36.57
2019-04-21T10:42:29.553Z,36.96
2019-04-21T10:45:01.495Z,35.24
2019-04-21T10:47:34.517Z,35.02
2019-04-21T10:50:11.232Z,34.88
2019-04-21T10:53:02.906Z,34.94
2019-04-21T10:55:53.318Z,34.93
2019-04-21T10:58:10.825Z,35.13
2019-04-21T11:00:46.067Z,34.96
2019-04-21T11:03:36.912Z,35.01
2019-04-21T11:06:12.710Z,34.85
2019-04-21T11:08:48.887Z,34.28
2019-04-21T11:11:19.515Z,37.28
2019-04-21T11:13:52.530Z,34.65
2019-04-21T11:16:24.539Z,35.19
2019-04-21T11:18:57.802Z,35.22
2019-04-21T11:21:31.129Z,34.86
2019-04-21T11:24:03.950Z,34.43
2019-04-21T11:26:36.050Z,34.31
2019-04-21T11:29:08.004Z,35.06
2019-04-21T11:31:41.034Z,35.01
2019-04-21T11:34:13.510Z,35.49
2019-04-21T11:36:45.959Z,34.77
2019-04-21T11:39:35.300Z,34.50
2019-04-21T11:41:55.781Z,32.84
2019-04-21T11:44:28.916Z,32.68
2019-04-21T11:47:02.550Z,31.89
2019-04-21T11:49:34.828Z,31.69
2019-04-21T11:52:07.076Z,33.11
2019-04-21T11:54:38.802Z,33.74
2019-04-21T11:57:15.196Z,33.33
2019-04-21T11:59:44.167Z,32.30
2019-04-21T12:02:17.269Z,32.73
2019-04-21T12:04:51.626Z,32.65
2019-04-21T12:07:23.455Z,31.62
2019-04-21T12:09:55.521Z,31.89
2019-04-21T12:12:27.547Z,31.46
2019-04-21T12:14:59.928Z,31.66
2019-04-21T12:17:32.098Z,31.46
2019-04-21T12:20:06.467Z,33.06
2019-04-21T12:22:39.115Z,31.10
2019-04-21T12:25:13.854Z,29.81
2019-04-21T12:27:45.780Z,29.40
2019-04-21T12:30:19.758Z,29.11
2019-04-21T12:33:02.383Z,28.52
2019-04-21T12:35:35.599Z,26.57
2019-04-21T12:38:08.794Z,26.18
2019-04-21T12:40:40.754Z,25.32
2019-04-21T12:43:12.659Z,25.78
2019-04-21T12:45:44.621Z,25.08
2019-04-21T12:48:17.924Z,24.35
2019-04-21T12:50:49.954Z,24.50
2019-04-21T12:53:23.405Z,24.55
2019-04-21T12:55:55.815Z,23.25
2019-04-21T12:58:29.088Z,23.57
2019-04-21T13:01:01.040Z,22.72
2019-04-21T13:03:34.098Z,21.57
2019-04-21T13:06:07.490Z,21.79
2019-04-21T13:08:51.877Z,21.16
2019-04-21T13:11:13.211Z,20.89
2019-04-21T13:13:45.968Z,22.15
2019-04-21T13:16:19.143Z,21.21
2019-04-21T13:18:51.299Z,20.52
2019-04-21T13:21:24.270Z,21.21
2019-04-21T13:23:56.901Z,21.22
2019-04-21T13:26:37.345Z,20.24
2019-04-21T13:29:02.754Z,19.93
2019-04-21T13:31:36.149Z,20.27
2019-04-21T13:34:08.338Z,20.37
2019-04-21T13:36:41.447Z,19.82
2019-04-21T13:42:07.598Z,19.65
2019-04-21T13:44:30.957Z,19.39
2019-04-21T13:47:03.081Z,18.95
2019-04-21T13:49:35.154Z,19.50
2019-04-21T13:52:07.145Z,19.00
2019-04-21T13:54:39.868Z,19.44
2019-04-21T13:57:12.511Z,19.12
2019-04-21T13:59:44.537Z,18.64
2019-04-21T14:02:16.447Z,19.09
2019-04-21T14:04:49.645Z,19.81
2019-04-21T14:07:21.764Z,19.92
2019-04-21T14:09:59.656Z,18.45
2019-04-21T14:12:28.106Z,18.45
2019-04-21T14:15:00.144Z,17.75
2019-04-21T14:17:32.864Z,17.89
2019-04-21T14:20:07.266Z,17.89
2019-04-21T14:22:40.046Z,17.48
2019-04-21T14:25:12.151Z,17.19
2019-04-21T14:27:45.791Z,17.44
2019-04-21T14:30:18.684Z,17.63
2019-04-21T14:32:51.757Z,17.41
2019-04-21T14:35:25.181Z,17.33
2019-04-21T14:37:58.190Z,18.55
2019-04-21T14:40:33.288Z,18.24
2019-04-21T14:43:03.946Z,18.00
2019-04-21T14:45:40.799Z,17.08
2019-04-21T14:48:21.252Z,17.34
2019-04-21T14:51:00.468Z,17.42
2019-04-21T14:53:34.087Z,16.60
2019-04-21T14:56:07.172Z,16.77
2019-04-21T14:58:39.259Z,16.35
2019-04-21T15:01:11.284Z,17.04
2019-04-21T15:03:43.756Z,16.36
2019-04-21T15:06:15.773Z,17.18
2019-04-21T15:08:49.079Z,17.02
2019-04-21T15:11:22.166Z,16.54
2019-04-21T15:13:53.965Z,16.54
2019-04-21T15:16:26.890Z,16.24
2019-04-21T15:18:59.066Z,16.59
2019-04-21T15:21:31.324Z,16.62
2019-04-21T15:24:04.518Z,17.21
2019-04-21T15:26:37.966Z,17.48
2019-04-21T15:29:10.790Z,16.50
2019-04-21T15:31:44.741Z,16.40
2019-04-21T15:34:17.463Z,16.06
2019-04-21T15:36:50.329Z,16.05
2019-04-21T15:39:23.530Z,15.32
2019-04-21T15:41:56.690Z,15.97
2019-04-21T15:44:28.452Z,15.86
2019-04-21T15:47:00.243Z,15.89
2019-04-21T15:49:56.981Z,15.13
2019-04-21T15:52:23.054Z,15.54
2019-04-21T15:54:57.005Z,15.65
2019-04-21T15:57:42.716Z,15.87
2019-04-21T16:00:32.341Z,15.87
2019-04-21T16:03:04.582Z,16.68
2019-04-21T16:05:37.119Z,16.78
2019-04-21T16:08:10.137Z,16.42
2019-04-21T16:10:50.163Z,16.60
2019-04-21T16:13:16.105Z,16.96
2019-04-21T16:15:50.452Z,16.99
2019-04-21T16:18:22.606Z,17.56
2019-04-21T16:20:55.778Z,16.78
2019-04-21T16:23:28.658Z,17.25
2019-04-21T16:26:02.445Z,17.03
2019-04-21T16:28:35.179Z,17.23
2019-04-21T16:31:07.119Z,18.01
2019-04-21T16:33:38.971Z,17.81
2019-04-21T16:36:12.901Z,18.34
2019-04-21T16:38:44.510Z,19.55
2019-04-21T16:41:16.284Z,19.78
2019-04-21T16:43:49.256Z,19.62
2019-04-21T16:46:21.231Z,20.57
2019-04-21T16:48:53.783Z,20.93
2019-04-21T16:51:26.416Z,21.59
2019-04-21T16:54:00.140Z,21.71
2019-04-21T16:56:33.687Z,21.87
2019-04-21T16:59:08.548Z,22.58
2019-04-21T17:01:40.720Z,23.29
2019-04-21T17:04:12.824Z,22.91
2019-04-21T17:06:45.040Z,23.26
2019-04-21T17:09:17.071Z,23.80
2019-04-21T17:11:52.332Z,24.47
2019-04-21T17:14:37.088Z,24.69
2019-04-21T17:17:20.494Z,24.40
2019-04-21T17:19:37.916Z,24.57
2019-04-21T17:22:04.077Z,25.00
2019-04-21T17:24:35.973Z,25.62
2019-04-21T17:27:09.029Z,25.72
2019-04-21T17:29:41.068Z,26.94
2019-04-21T17:32:14.199Z,27.14
2019-04-21T17:34:47.642Z,26.85
2019-04-21T17:37:22.229Z,27.81
2019-04-21T17:39:54.510Z,27.10
2019-04-21T17:42:34.477Z,27.83
2019-04-21T17:45:01.301Z,27.81
2019-04-21T17:47:44.892Z,28.57
2019-04-21T17:50:11.737Z,29.50
2019-04-21T17:52:50.519Z,30.05
2019-04-21T17:55:28.281Z,30.92
2019-04-21T17:58:11.593Z,31.23
2019-04-21T18:03:40.399Z,31.61
2019-04-21T18:06:00.838Z,30.77
2019-04-21T18:08:37.102Z,31.23
2019-04-21T18:11:01.199Z,31.12
2019-04-21T18:13:26.598Z,31.72
2019-04-21T18:16:11.009Z,32.15
2019-04-21T18:18:32.920Z,33.13
2019-04-21T18:21:14.444Z,32.94
2019-04-21T18:23:57.414Z,34.18
2019-04-21T18:26:35.471Z,35.04
2019-04-21T18:28:57.715Z,34.16
2019-04-21T18:31:33.818Z,34.50
2019-04-21T18:34:26.144Z,35.26
2019-04-21T18:36:59.714Z,34.87
2019-04-21T18:39:49.556Z,35.90
2019-04-21T18:42:31.297Z,35.22
2019-04-21T18:45:34.089Z,35.57
2019-04-21T18:47:53.904Z,36.07
2019-04-21T18:50:41.776Z,34.72
2019-04-21T18:53:41.436Z,34.73
2019-04-21T18:56:04.896Z,36.82
2019-04-21T18:58:32.669Z,37.41
2019-04-21T19:01:11.754Z,37.00
2019-04-21T19:03:43.110Z,37.70
2019-04-21T19:06:18.825Z,38.97
2019-04-21T19:09:07.712Z,37.65
2019-04-21T19:11:32.860Z,37.65
2019-04-21T19:17:04.338Z,36.90
2019-04-21T19:22:04.624Z,37.21
2019-04-21T19:24:54.979Z,37.92
2019-04-21T19:27:15.660Z,38.00
2019-04-21T19:29:57.255Z,37.07
2019-04-21T19:32:21.483Z,36.24
2019-04-21T19:34:39.856Z,36.78
2019-04-21T19:37:13.425Z,36.00
2019-04-21T19:39:53.940Z,35.27
2019-04-21T19:42:25.512Z,34.60
2019-04-21T19:45:08.894Z,33.32
2019-04-21T19:47:44.960Z,33.43
2019-04-21T19:50:19.776Z,33.54
2019-04-21T19:52:41.088Z,33.08
2019-04-21T19:55:04.177Z,32.74
2019-04-21T19:57:36.718Z,32.99
2019-04-21T20:00:11.513Z,32.53
2019-04-21T20:02:44.748Z,32.52
2019-04-21T20:05:29.788Z,32.48
2019-04-21T20:08:08.327Z,31.79
2019-04-21T20:10:44.154Z,31.70
2019-04-21T20:13:26.129Z,31.99
2019-04-21T20:15:50.956Z,32.11
2019-04-21T20:18:18.544Z,31.97
2019-04-21T20:20:39.657Z,31.92
2019-04-21T20:23:16.991Z,32.40
2019-04-21T20:25:49.820Z,32.11
2019-04-21T20:28:34.498Z,32.17
2019-04-21T20:31:14.708Z,31.93
2019-04-21T20:33:59.248Z,31.71
2019-04-21T20:36:25.197Z,31.74
2019-04-21T20:38:47.081Z,31.79
2019-04-21T20:41:25.708Z,31.72
2019-04-21T20:44:02.217Z,31.51
2019-04-21T20:46:36.806Z,31.89
2019-04-21T20:49:04.204Z,31.75
2019-04-21T20:51:40.367Z,31.95
2019-04-21T20:54:16.008Z,31.47
2019-04-21T20:56:49.614Z,31.50
2019-04-21T20:59:19.511Z,31.66
2019-04-21T21:01:54.938Z,31.62
2019-04-21T21:04:21.834Z,32.03
2019-04-21T21:07:09.174Z,32.59
2019-04-21T21:09:33.777Z,32.24
2019-04-21T21:12:24.468Z,31.79
2019-04-21T21:14:40.766Z,32.16
2019-04-21T21:17:26.952Z,31.89
2019-04-21T21:19:55.132Z,31.98
2019-04-21T21:22:14.859Z,32.37
2019-04-21T21:24:55.771Z,31.86
2019-04-21T21:27:27.955Z,32.76
2019-04-21T21:30:00.669Z,32.77
2019-04-21T21:32:37.382Z,33.39
2019-04-21T21:35:13.740Z,33.24
2019-04-21T21:37:52.049Z,32.89
2019-04-21T21:40:22.191Z,32.05
2019-04-21T21:42:40.337Z,32.31
2019-04-21T21:45:15.968Z,32.93
2019-04-21T21:48:00.997Z,33.99
2019-04-21T21:50:26.146Z,33.81
2019-04-21T21:53:00.574Z,33.54
2019-04-21T21:55:25.603Z,33.96
2019-04-21T21:58:01.930Z,34.02
2019-04-21T22:00:37.023Z,34.45
2019-04-21T22:03:17.850Z,35.17
2019-04-21T22:05:48.370Z,34.88
2019-04-21T22:08:16.353Z,35.16
2019-04-21T22:10:49.390Z,35.02
2019-04-21T22:13:27.029Z,35.50
2019-04-21T22:15:59.866Z,35.41
2019-04-21T22:18:43.120Z,35.85
2019-04-21T22:21:15.958Z,36.30
2019-04-21T22:23:43.848Z,36.16
2019-04-21T22:26:09.574Z,36.38
2019-04-21T22:28:41.522Z,36.38
2019-04-21T22:31:20.721Z,36.90
2019-04-21T22:33:51.281Z,36.84
2019-04-21T22:36:34.282Z,37.21
2019-04-21T22:39:13.056Z,37.29
2019-04-21T22:41:35.753Z,37.86
2019-04-21T22:44:02.487Z,37.62
2019-04-21T22:46:36.047Z,37.76
2019-04-21T22:49:10.696Z,37.79
2019-04-21T22:51:46.472Z,38.22
2019-04-21T22:54:20.823Z,38.42
2019-04-21T22:56:57.120Z,39.04
2019-04-21T22:59:24.352Z,38.98
2019-04-21T23:01:55.823Z,39.28
2019-04-21T23:04:36.833Z,39.21
2019-04-21T23:07:10.094Z,39.59
2019-04-21T23:09:37.267Z,39.43
2019-04-21T23:12:12.453Z,39.71
2019-04-21T23:14:52.215Z,40.15
2019-04-21T23:17:32.364Z,40.53
2019-04-21T23:20:10.506Z,40.69
2019-04-21T23:22:56.272Z,41.19
2019-04-21T23:25:18.162Z,41.12
2019-04-21T23:27:46.996Z,41.67
2019-04-21T23:30:33.805Z,41.62
2019-04-21T23:32:50.426Z,41.68
2019-04-21T23:35:25.391Z,41.74
2019-04-21T23:37:52.950Z,41.93
2019-04-21T23:40:25.450Z,42.49
2019-04-21T23:43:00.144Z,42.54
2019-04-21T23:45:33.999Z,42.59
2019-04-21T23:48:18.539Z,42.65
2019-04-21T23:50:45.916Z,43.34
2019-04-21T23:53:11.075Z,43.22
2019-04-21T23:55:43.412Z,43.79
2019-04-21T23:58:22.216Z,44.04
